createdAt,value
2019-05-17T00:01:33.071Z,7.63
2019-05-17T00:04:03.057Z,7.70
2019-05-17T00:06:33.094Z,7.50
2019-05-17T00:09:06.885Z,7.47
2019-05-17T00:11:36.878Z,7.41
2019-05-17T00:14:06.964Z,7.32
2019-05-17T00:16:37.496Z,7.18
2019-05-17T00:19:07.723Z,7.14
2019-05-17T00:21:37.793Z,7.12
2019-05-17T00:24:07.856Z,7.06
2019-05-17T00:26:39.737Z,7.13
2019-05-17T00:29:09.660Z,7.08
2019-05-17T00:31:39.715Z,7.01
2019-05-17T00:34:09.780Z,6.95
2019-05-17T00:36:39.824Z,6.96
2019-05-17T00:39:09.821Z,6.86
2019-05-17T00:41:39.832Z,6.74
2019-05-17T00:44:10.031Z,6.72
2019-05-17T00:46:40.020Z,6.56
2019-05-17T00:49:10.023Z,6.61
2019-05-17T00:51:40.007Z,6.61
2019-05-17T00:54:09.983Z,6.56
2019-05-17T00:56:40.012Z,6.53
2019-05-17T00:59:10.070Z,6.37
2019-05-17T01:01:40.067Z,6.34
2019-05-17T01:04:11.198Z,6.32
2019-05-17T01:06:41.247Z,6.30
2019-05-17T01:09:11.244Z,6.26
2019-05-17T01:11:41.248Z,6.15
2019-05-17T01:14:11.301Z,6.14
2019-05-17T01:16:41.295Z,6.28
2019-05-17T01:19:11.280Z,6.21
2019-05-17T01:21:41.313Z,6.15
2019-05-17T01:24:11.291Z,6.25
2019-05-17T01:26:42.421Z,6.22
2019-05-17T01:29:12.434Z,6.10
2019-05-17T01:31:42.474Z,6.05
2019-05-17T01:34:12.475Z,6.01
2019-05-17T01:36:42.474Z,5.96
2019-05-17T01:39:17.742Z,5.91
2019-05-17T01:41:44.185Z,5.90
2019-05-17T01:44:16.531Z,5.76
2019-05-17T01:46:46.488Z,5.79
2019-05-17T01:49:16.661Z,5.77
2019-05-17T01:51:46.705Z,5.73
2019-05-17T01:54:17.756Z,5.67
2019-05-17T01:56:47.731Z,5.75
2019-05-17T01:59:17.812Z,5.68
2019-05-17T02:01:49.479Z,5.68
2019-05-17T02:04:19.469Z,5.56
2019-05-17T02:06:49.491Z,5.51
2019-05-17T02:09:33.735Z,5.49
2019-05-17T02:11:51.338Z,5.55
2019-05-17T02:14:21.334Z,5.55
2019-05-17T02:16:51.385Z,5.56
2019-05-17T02:19:21.379Z,5.52
2019-05-17T02:21:51.395Z,5.52
2019-05-17T02:24:21.408Z,5.46
2019-05-17T02:26:51.402Z,5.31
2019-05-17T02:29:21.527Z,5.43
2019-05-17T02:31:52.656Z,5.49
2019-05-17T02:34:23.330Z,5.43
2019-05-17T02:36:53.667Z,5.41
2019-05-17T02:39:23.727Z,5.25
2019-05-17T02:41:53.716Z,5.17
2019-05-17T02:44:23.789Z,5.30
2019-05-17T02:46:53.995Z,5.18
2019-05-17T02:49:24.074Z,5.13
2019-05-17T02:51:54.090Z,5.16
2019-05-17T02:54:24.067Z,5.09
2019-05-17T02:56:54.143Z,5.17
2019-05-17T02:59:24.138Z,5.15
2019-05-17T03:01:54.207Z,5.12
2019-05-17T03:04:24.218Z,5.01
2019-05-17T03:06:54.309Z,5.11
2019-05-17T03:09:24.283Z,5.00
2019-05-17T03:11:57.011Z,4.96
2019-05-17T03:14:25.962Z,5.05
2019-05-17T03:16:55.989Z,4.98
2019-05-17T03:19:26.003Z,4.96
2019-05-17T03:21:56.053Z,4.84
2019-05-17T03:24:26.020Z,5.01
2019-05-17T03:26:57.022Z,5.07
2019-05-17T03:29:27.887Z,5.12
2019-05-17T03:32:00.561Z,5.20
2019-05-17T03:37:37.454Z,5.17
2019-05-17T03:40:23.409Z,5.33
2019-05-17T03:42:38.424Z,5.30
2019-05-17T03:45:08.961Z,5.34
2019-05-17T03:47:39.003Z,5.37
2019-05-17T03:50:13.111Z,5.42
2019-05-17T03:52:44.556Z,5.54
2019-05-17T03:55:14.128Z,5.65
2019-05-17T03:57:44.507Z,5.75
2019-05-17T04:00:16.299Z,5.78
2019-05-17T04:02:46.419Z,5.85
2019-05-17T04:05:16.567Z,5.94
2019-05-17T04:07:46.606Z,5.91
2019-05-17T04:10:16.735Z,6.05
2019-05-17T04:12:46.772Z,5.99
2019-05-17T04:15:16.934Z,6.12
2019-05-17T04:17:47.102Z,6.12
2019-05-17T04:20:17.107Z,6.23
2019-05-17T04:22:47.171Z,6.31
2019-05-17T04:25:17.155Z,6.36
2019-05-17T04:27:47.145Z,6.38
2019-05-17T04:30:17.277Z,6.50
2019-05-17T04:32:47.374Z,6.68
2019-05-17T04:35:17.367Z,6.77
2019-05-17T04:37:47.466Z,6.85
2019-05-17T04:40:17.603Z,6.99
2019-05-17T04:42:47.607Z,7.13
2019-05-17T04:45:17.755Z,7.15
2019-05-17T04:47:47.720Z,7.32
2019-05-17T04:50:17.885Z,7.37
2019-05-17T04:52:47.855Z,7.46
2019-05-17T04:55:18.133Z,7.59
2019-05-17T04:57:48.123Z,7.76
2019-05-17T05:00:18.708Z,7.90
2019-05-17T05:02:48.733Z,7.98
2019-05-17T05:05:18.836Z,8.02
2019-05-17T05:07:48.887Z,8.18
2019-05-17T05:10:18.840Z,8.33
2019-05-17T05:12:52.199Z,8.42
2019-05-17T05:15:23.748Z,8.59
2019-05-17T05:17:53.770Z,8.78
2019-05-17T05:20:23.747Z,8.91
2019-05-17T05:22:53.727Z,9.07
2019-05-17T05:25:23.753Z,9.25
2019-05-17T05:27:53.754Z,9.25
2019-05-17T05:30:23.795Z,9.25
2019-05-17T05:32:53.860Z,9.43
2019-05-17T05:35:23.851Z,9.43
2019-05-17T05:37:53.951Z,9.78
2019-05-17T05:40:23.760Z,9.83
2019-05-17T05:42:53.820Z,9.90
2019-05-17T05:45:23.818Z,9.94
2019-05-17T05:47:53.834Z,10.02
2019-05-17T05:50:23.908Z,10.31
2019-05-17T05:52:53.923Z,10.56
2019-05-17T05:55:25.505Z,10.51
2019-05-17T05:57:55.523Z,10.55
2019-05-17T06:00:25.778Z,10.74
2019-05-17T06:02:56.570Z,10.73
2019-05-17T06:05:26.606Z,10.73
2019-05-17T06:07:56.604Z,10.94
2019-05-17T06:10:26.623Z,10.89
2019-05-17T06:12:56.689Z,11.03
2019-05-17T06:15:26.762Z,11.13
2019-05-17T06:17:56.744Z,11.17
2019-05-17T06:20:26.853Z,11.24
2019-05-17T06:22:56.863Z,11.46
2019-05-17T06:25:26.897Z,11.50
2019-05-17T06:27:56.899Z,11.65
2019-05-17T06:30:26.952Z,12.06
2019-05-17T06:32:56.978Z,12.10
2019-05-17T06:35:26.973Z,11.88
2019-05-17T06:37:56.988Z,12.27
2019-05-17T06:40:26.980Z,12.23
2019-05-17T06:42:57.001Z,12.30
2019-05-17T06:45:26.978Z,12.37
2019-05-17T06:47:57.013Z,12.46
2019-05-17T06:50:26.992Z,12.52
2019-05-17T06:52:57.026Z,12.62
2019-05-17T06:55:27.007Z,12.74
2019-05-17T06:57:57.226Z,12.76
2019-05-17T07:00:29.780Z,12.97
2019-05-17T07:03:00.737Z,13.02
2019-05-17T07:05:40.404Z,13.11
2019-05-17T07:08:10.811Z,13.26
2019-05-17T07:10:41.082Z,13.39
2019-05-17T07:13:11.119Z,13.75
2019-05-17T07:15:47.241Z,13.69
2019-05-17T07:18:12.830Z,13.72
2019-05-17T07:20:42.816Z,13.95
2019-05-17T07:23:12.877Z,14.27
2019-05-17T07:25:42.866Z,14.34
2019-05-17T07:28:12.901Z,14.25
2019-05-17T07:30:42.886Z,15.42
2019-05-17T07:33:12.951Z,15.89
2019-05-17T07:35:42.940Z,15.42
2019-05-17T07:38:12.950Z,15.17
2019-05-17T07:40:42.992Z,15.07
2019-05-17T07:43:14.902Z,15.09
2019-05-17T07:45:44.683Z,15.25
2019-05-17T07:48:14.695Z,15.38
2019-05-17T07:50:45.076Z,15.60
2019-05-17T07:53:15.104Z,15.67
2019-05-17T07:55:45.088Z,15.93
2019-05-17T07:58:15.113Z,15.95
2019-05-17T08:00:45.187Z,15.88
2019-05-17T08:03:15.220Z,16.01
2019-05-17T08:05:45.358Z,16.66
2019-05-17T08:08:15.376Z,17.85
2019-05-17T08:10:45.386Z,17.05
2019-05-17T08:13:29.139Z,17.80
2019-05-17T08:15:50.198Z,18.54
2019-05-17T08:18:20.484Z,18.56
2019-05-17T08:20:51.573Z,16.65
2019-05-17T08:23:21.594Z,16.48
2019-05-17T08:25:56.003Z,16.33
2019-05-17T08:28:23.382Z,16.17
2019-05-17T08:30:53.384Z,16.27
2019-05-17T08:33:23.437Z,16.25
2019-05-17T08:35:53.505Z,16.35
2019-05-17T08:38:23.522Z,16.69
2019-05-17T08:40:53.530Z,16.94
2019-05-17T08:43:37.926Z,17.33
2019-05-17T08:45:58.327Z,17.98
2019-05-17T08:48:29.350Z,18.09
2019-05-17T08:51:00.126Z,17.94
2019-05-17T08:53:31.422Z,17.61
2019-05-17T08:56:01.427Z,17.47
2019-05-17T08:58:31.503Z,17.41
2019-05-17T09:01:01.510Z,17.88
2019-05-17T09:03:31.498Z,18.53
2019-05-17T09:06:02.989Z,18.79
2019-05-17T09:08:33.251Z,18.96
2019-05-17T09:11:03.254Z,18.83
2019-05-17T09:13:33.326Z,18.97
2019-05-17T09:16:03.333Z,19.01
2019-05-17T09:18:33.453Z,19.05
2019-05-17T09:21:03.453Z,19.04
2019-05-17T09:23:33.458Z,18.89
2019-05-17T09:26:03.484Z,18.74
2019-05-17T09:28:33.547Z,18.44
2019-05-17T09:31:03.539Z,18.51
2019-05-17T09:33:33.542Z,18.53
2019-05-17T09:36:03.569Z,18.33
2019-05-17T09:38:33.589Z,18.43
2019-05-17T09:41:03.593Z,18.51
2019-05-17T09:43:33.625Z,18.54
2019-05-17T09:46:03.675Z,18.94
2019-05-17T09:48:33.692Z,19.15
2019-05-17T09:51:03.756Z,19.34
2019-05-17T09:53:33.745Z,19.96
2019-05-17T09:56:03.810Z,20.46
2019-05-17T09:58:33.812Z,20.73
2019-05-17T10:01:04.011Z,20.81
2019-05-17T10:03:34.239Z,20.37
2019-05-17T10:06:04.371Z,20.23
2019-05-17T10:08:34.446Z,19.85
2019-05-17T10:11:08.771Z,20.28
2019-05-17T10:13:36.668Z,19.14
2019-05-17T10:16:06.727Z,18.30
2019-05-17T10:18:36.729Z,19.25
2019-05-17T10:21:06.814Z,19.33
2019-05-17T10:23:36.796Z,18.80
2019-05-17T10:26:06.886Z,19.10
2019-05-17T10:28:36.868Z,18.96
2019-05-17T10:31:06.953Z,19.32
2019-05-17T10:33:36.947Z,18.81
2019-05-17T10:36:07.056Z,19.12
2019-05-17T10:38:39.437Z,18.98
2019-05-17T10:41:10.097Z,19.52
2019-05-17T10:43:40.292Z,19.57
2019-05-17T10:46:10.718Z,19.48
2019-05-17T10:48:41.155Z,18.73
2019-05-17T10:51:13.355Z,19.81
2019-05-17T10:53:43.118Z,19.87
2019-05-17T10:56:13.231Z,20.01
2019-05-17T10:58:43.311Z,20.25
2019-05-17T11:01:14.110Z,20.13
2019-05-17T11:03:44.100Z,19.85
2019-05-17T11:06:15.209Z,19.51
2019-05-17T11:08:45.263Z,19.57
2019-05-17T11:11:15.316Z,19.23
2019-05-17T11:13:45.292Z,19.72
2019-05-17T11:16:15.470Z,19.94
2019-05-17T11:18:45.533Z,19.32
2019-05-17T11:21:15.711Z,19.24
2019-05-17T11:23:45.701Z,19.19
2019-05-17T11:26:15.717Z,19.65
2019-05-17T11:28:45.755Z,19.71
2019-05-17T11:31:15.838Z,20.05
2019-05-17T11:33:45.882Z,19.43
2019-05-17T11:36:16.243Z,19.48
2019-05-17T11:38:46.296Z,19.55
2019-05-17T11:41:21.244Z,20.01
2019-05-17T11:43:48.128Z,19.92
2019-05-17T11:46:18.119Z,20.49
2019-05-17T11:48:48.160Z,20.92
2019-05-17T11:51:18.157Z,21.44
2019-05-17T11:53:48.161Z,21.27
2019-05-17T11:56:18.161Z,21.01
2019-05-17T11:58:48.151Z,20.86
2019-05-17T12:01:18.246Z,20.01
2019-05-17T12:03:48.270Z,20.28
2019-05-17T12:06:18.263Z,20.54
2019-05-17T12:08:48.324Z,20.51
2019-05-17T12:11:18.324Z,20.78
2019-05-17T12:13:48.410Z,20.86
2019-05-17T12:16:18.456Z,20.47
2019-05-17T12:18:48.516Z,20.48
2019-05-17T12:21:18.579Z,20.18
2019-05-17T12:23:48.561Z,19.72
2019-05-17T12:26:18.565Z,20.16
2019-05-17T12:28:48.584Z,20.44
2019-05-17T12:31:18.582Z,19.64
2019-05-17T12:33:48.696Z,19.67
2019-05-17T12:36:18.688Z,20.05
2019-05-17T12:38:48.726Z,20.45
2019-05-17T12:41:18.721Z,20.34
2019-05-17T12:43:48.739Z,20.73
2019-05-17T12:46:18.833Z,21.22
2019-05-17T12:48:48.823Z,21.20
2019-05-17T12:51:18.863Z,20.85
2019-05-17T12:53:48.852Z,20.42
2019-05-17T12:56:18.876Z,20.77
2019-05-17T12:58:48.864Z,21.04
2019-05-17T13:01:18.885Z,20.37
2019-05-17T13:03:48.911Z,20.60
2019-05-17T13:06:18.941Z,20.29
2019-05-17T13:08:49.014Z,21.15
2019-05-17T13:11:19.059Z,20.81
2019-05-17T13:13:49.078Z,20.61
2019-05-17T13:16:20.340Z,20.70
2019-05-17T13:18:50.329Z,21.09
2019-05-17T13:21:20.439Z,20.88
2019-05-17T13:23:50.566Z,20.96
2019-05-17T13:26:21.468Z,20.64
2019-05-17T13:28:51.458Z,21.00
2019-05-17T13:31:21.546Z,21.74
2019-05-17T13:33:51.550Z,21.73
2019-05-17T13:36:21.665Z,21.04
2019-05-17T13:38:51.653Z,21.41
2019-05-17T13:41:21.785Z,22.08
2019-05-17T13:43:51.820Z,21.59
2019-05-17T13:46:32.858Z,21.23
2019-05-17T13:48:53.705Z,21.48
2019-05-17T13:51:23.733Z,21.41
2019-05-17T13:53:53.785Z,21.24
2019-05-17T13:56:23.981Z,21.44
2019-05-17T13:58:54.004Z,21.07
2019-05-17T14:01:24.001Z,21.21
2019-05-17T14:03:54.128Z,21.03
2019-05-17T14:06:24.111Z,20.71
2019-05-17T14:08:54.180Z,20.41
2019-05-17T14:11:24.162Z,20.56
2019-05-17T14:13:54.156Z,20.30
2019-05-17T14:16:24.156Z,20.47
2019-05-17T14:18:54.190Z,20.28
2019-05-17T14:21:24.274Z,20.12
2019-05-17T14:23:54.283Z,20.02
2019-05-17T14:26:24.400Z,20.34
2019-05-17T14:28:54.490Z,20.80
2019-05-17T14:31:24.488Z,20.85
2019-05-17T14:33:54.526Z,20.82
2019-05-17T14:36:24.541Z,20.77
2019-05-17T14:38:54.537Z,20.83
2019-05-17T14:41:24.526Z,21.07
2019-05-17T14:43:54.571Z,21.08
2019-05-17T14:46:24.634Z,21.27
2019-05-17T14:48:54.636Z,20.87
2019-05-17T14:51:24.639Z,20.72
2019-05-17T14:53:54.849Z,20.94
2019-05-17T14:56:24.899Z,20.40
2019-05-17T14:58:54.892Z,20.49
2019-05-17T15:01:24.908Z,20.33
2019-05-17T15:03:54.936Z,20.15
2019-05-17T15:06:24.914Z,20.16
2019-05-17T15:08:54.931Z,20.17
2019-05-17T15:11:24.949Z,19.71
2019-05-17T15:13:54.958Z,20.19
2019-05-17T15:16:25.433Z,20.27
2019-05-17T15:18:55.460Z,20.30
2019-05-17T15:21:25.547Z,20.10
2019-05-17T15:23:55.560Z,20.02
2019-05-17T15:26:25.549Z,19.88
2019-05-17T15:28:56.725Z,20.21
2019-05-17T15:31:26.721Z,19.99
2019-05-17T15:33:56.730Z,20.09
2019-05-17T15:36:26.731Z,20.20
2019-05-17T15:38:56.789Z,20.22
2019-05-17T15:41:26.805Z,20.17
2019-05-17T15:43:56.899Z,20.09
2019-05-17T15:46:26.956Z,20.12
2019-05-17T15:48:57.254Z,20.21
2019-05-17T15:51:27.251Z,20.06
2019-05-17T15:53:57.253Z,20.12
2019-05-17T15:56:27.590Z,20.12
2019-05-17T15:58:57.594Z,19.94
2019-05-17T16:01:27.652Z,20.02
2019-05-17T16:03:57.633Z,20.13
2019-05-17T16:06:27.677Z,19.95
2019-05-17T16:08:57.777Z,19.94
2019-05-17T16:11:27.760Z,19.98
2019-05-17T16:13:58.852Z,19.75
2019-05-17T16:16:28.870Z,19.78
2019-05-17T16:18:58.869Z,19.57
2019-05-17T16:21:28.888Z,19.41
2019-05-17T16:23:58.895Z,19.18
2019-05-17T16:26:28.912Z,19.01
2019-05-17T16:29:00.000Z,18.98
2019-05-17T16:31:29.994Z,18.95
2019-05-17T16:34:00.089Z,19.09
2019-05-17T16:36:30.083Z,19.08
2019-05-17T16:39:00.099Z,18.97
2019-05-17T16:41:30.153Z,18.88
2019-05-17T16:44:00.246Z,18.90
2019-05-17T16:46:30.246Z,18.89
2019-05-17T16:49:00.295Z,18.73
2019-05-17T16:51:30.364Z,18.74
2019-05-17T16:54:00.369Z,18.64
2019-05-17T16:56:30.418Z,18.55
2019-05-17T16:59:00.409Z,18.55
2019-05-17T17:01:30.501Z,18.56
2019-05-17T17:04:00.816Z,18.69
2019-05-17T17:06:31.142Z,18.54
2019-05-17T17:09:01.338Z,18.56
2019-05-17T17:11:33.178Z,18.55
2019-05-17T17:14:03.310Z,18.50
2019-05-17T17:16:33.291Z,18.17
2019-05-17T17:19:03.292Z,18.24
2019-05-17T17:21:33.327Z,18.22
2019-05-17T17:24:03.488Z,18.09
2019-05-17T17:26:33.542Z,18.22
2019-05-17T17:29:03.745Z,18.26
2019-05-17T17:31:33.763Z,18.14
2019-05-17T17:34:03.920Z,18.15
2019-05-17T17:36:33.921Z,17.96
2019-05-17T17:39:05.905Z,17.94
2019-05-17T17:41:35.965Z,17.90
2019-05-17T17:44:06.092Z,17.92
2019-05-17T17:46:36.406Z,17.93
2019-05-17T17:49:06.594Z,17.66
2019-05-17T17:51:36.756Z,17.60
2019-05-17T17:54:06.760Z,17.72
2019-05-17T17:56:36.795Z,17.64
2019-05-17T17:59:06.869Z,17.57
2019-05-17T18:01:37.029Z,17.55
2019-05-17T18:04:07.087Z,17.72
2019-05-17T18:06:37.153Z,17.60
2019-05-17T18:09:07.662Z,17.50
2019-05-17T18:11:37.705Z,17.53
2019-05-17T18:14:13.189Z,17.58
2019-05-17T18:16:40.495Z,17.50
2019-05-17T18:19:10.535Z,17.55
2019-05-17T18:21:40.580Z,17.50
2019-05-17T18:24:10.691Z,17.42
2019-05-17T18:26:40.690Z,17.42
2019-05-17T18:29:10.693Z,17.27
2019-05-17T18:31:40.755Z,17.29
2019-05-17T18:34:10.799Z,17.35
2019-05-17T18:36:40.888Z,17.31
2019-05-17T18:39:11.027Z,17.21
2019-05-17T18:41:41.091Z,17.14
2019-05-17T18:44:11.103Z,17.12
2019-05-17T18:46:41.140Z,17.04
2019-05-17T18:49:11.271Z,16.89
2019-05-17T18:51:41.352Z,16.86
2019-05-17T18:54:13.083Z,16.83
2019-05-17T18:56:43.081Z,16.80
2019-05-17T18:59:13.199Z,16.86
2019-05-17T19:01:43.266Z,16.83
2019-05-17T19:04:13.293Z,16.77
2019-05-17T19:06:44.579Z,16.74
2019-05-17T19:09:14.667Z,16.60
2019-05-17T19:11:44.793Z,16.59
2019-05-17T19:14:14.803Z,16.58
2019-05-17T19:16:44.797Z,16.55
2019-05-17T19:19:14.846Z,16.54
2019-05-17T19:21:44.850Z,16.49
2019-05-17T19:24:14.881Z,16.49
2019-05-17T19:26:44.957Z,16.53
2019-05-17T19:29:16.036Z,16.53
2019-05-17T19:31:46.059Z,16.52
2019-05-17T19:34:16.043Z,16.42
2019-05-17T19:36:46.092Z,16.36
2019-05-17T19:39:16.092Z,16.29
2019-05-17T19:41:46.116Z,16.22
2019-05-17T19:44:16.186Z,16.20
2019-05-17T19:46:46.192Z,16.30
2019-05-17T19:49:16.375Z,16.22
2019-05-17T19:51:46.375Z,16.26
2019-05-17T19:54:16.409Z,16.22
2019-05-17T19:56:47.483Z,16.14
2019-05-17T19:59:17.586Z,16.09
2019-05-17T20:01:48.793Z,16.05
2019-05-17T20:04:18.854Z,16.07
2019-05-17T20:06:48.853Z,16.03
2019-05-17T20:09:18.966Z,16.00
2019-05-17T20:11:48.985Z,15.97
2019-05-17T20:14:18.992Z,15.91
2019-05-17T20:16:49.202Z,15.80
2019-05-17T20:19:19.260Z,15.79
2019-05-17T20:21:49.354Z,15.74
2019-05-17T20:24:19.494Z,15.83
2019-05-17T20:26:49.500Z,15.84
2019-05-17T20:29:19.512Z,15.68
2019-05-17T20:31:49.519Z,15.61
2019-05-17T20:34:19.510Z,15.65
2019-05-17T20:36:49.556Z,15.60
2019-05-17T20:39:19.552Z,15.56
2019-05-17T20:41:49.622Z,15.62
2019-05-17T20:44:19.656Z,15.64
2019-05-17T20:46:49.675Z,15.66
2019-05-17T20:49:19.673Z,15.72
2019-05-17T20:51:49.715Z,15.68
2019-05-17T20:54:19.709Z,15.66
2019-05-17T20:56:49.741Z,15.60
2019-05-17T20:59:19.787Z,15.48
2019-05-17T21:01:49.812Z,15.48
2019-05-17T21:04:19.847Z,15.49
2019-05-17T21:06:49.878Z,15.52
2019-05-17T21:09:19.913Z,15.41
2019-05-17T21:11:49.960Z,15.56
2019-05-17T21:14:19.960Z,15.41
2019-05-17T21:16:49.996Z,15.37
2019-05-17T21:19:20.003Z,15.42
2019-05-17T21:21:50.077Z,15.41
2019-05-17T21:24:20.211Z,15.41
2019-05-17T21:26:50.231Z,15.39
2019-05-17T21:29:20.263Z,15.30
2019-05-17T21:31:50.297Z,15.15
2019-05-17T21:34:20.413Z,15.07
2019-05-17T21:36:50.591Z,15.04
2019-05-17T21:39:21.675Z,15.17
2019-05-17T21:41:51.693Z,14.87
2019-05-17T21:44:21.703Z,14.95
2019-05-17T21:47:03.723Z,14.91
2019-05-17T21:49:23.448Z,14.95
2019-05-17T21:51:53.418Z,14.96
2019-05-17T21:54:23.567Z,14.95
2019-05-17T21:56:54.701Z,15.02
2019-05-17T21:59:24.710Z,14.95
2019-05-17T22:01:55.173Z,14.88
2019-05-17T22:04:27.094Z,14.94
2019-05-17T22:06:57.008Z,14.89
2019-05-17T22:09:27.143Z,15.24
2019-05-17T22:11:59.898Z,14.72
2019-05-17T22:14:29.894Z,14.65
2019-05-17T22:16:59.921Z,14.36
2019-05-17T22:19:29.944Z,14.37
2019-05-17T22:21:59.973Z,14.32
2019-05-17T22:24:30.037Z,14.12
2019-05-17T22:27:00.085Z,14.01
2019-05-17T22:29:30.144Z,14.15
2019-05-17T22:32:00.139Z,13.90
2019-05-17T22:34:30.230Z,13.56
2019-05-17T22:37:00.308Z,13.35
2019-05-17T22:39:30.350Z,13.31
2019-05-17T22:42:00.330Z,13.20
2019-05-17T22:44:31.771Z,13.48
2019-05-17T22:47:01.769Z,13.14
2019-05-17T22:49:31.805Z,13.26
2019-05-17T22:52:01.854Z,13.32
2019-05-17T22:54:31.854Z,13.25
2019-05-17T22:57:01.947Z,13.20
2019-05-17T22:59:32.057Z,13.17
2019-05-17T23:02:02.070Z,13.12
2019-05-17T23:04:34.808Z,13.04
2019-05-17T23:07:04.785Z,13.00
2019-05-17T23:09:34.910Z,13.08
2019-05-17T23:13:02.566Z,13.30
2019-05-17T23:15:34.375Z,12.91
2019-05-17T23:18:04.366Z,12.97
2019-05-17T23:20:34.478Z,12.91
2019-05-17T23:23:04.536Z,12.94
2019-05-17T23:25:34.542Z,12.92
2019-05-17T23:28:04.579Z,12.90
2019-05-17T23:30:34.669Z,12.77
2019-05-17T23:33:04.732Z,12.96
2019-05-17T23:35:34.740Z,12.66
2019-05-17T23:38:04.806Z,12.84
2019-05-17T23:40:34.796Z,12.89
2019-05-17T23:43:04.908Z,12.78
2019-05-17T23:45:35.000Z,12.42
2019-05-17T23:48:04.994Z,12.59
2019-05-17T23:50:35.012Z,12.43
2019-05-17T23:53:05.176Z,12.42
2019-05-17T23:55:35.216Z,12.47
2019-05-17T23:58:05.347Z,12.36
